Time;durP1;ratioP1;P1;durP2;ratioP2;P2;SDS_P1;SDS_P2;PMS_P1;PMS_P2;Temp;Humidity;BMP_temperature;BMP_pressure;BME280_temperature;BME280_humidity;BME280_pressure;Samples;Min_cycle;Max_cycle;Signal;HPM_P1;HPM_P2
2022/04/24 00:01:06;;;;;;;7.57;5.90;;;;;;;14.89;57.73;94077.00;5073934;28;20176;-73
2022/04/24 00:03:32;;;;;;;9.87;5.97;;;;;;;14.82;58.77;94080.59;5085615;28;20166;-74
2022/04/24 00:05:58;;;;;;;12.43;6.30;;;;;;;14.53;59.85;94074.47;5084034;28;20422;-73
2022/04/24 00:08:24;;;;;;;7.57;5.83;;;;;;;14.57;59.31;94080.09;5077061;28;20445;-73
2022/04/24 00:10:50;;;;;;;6.67;4.80;;;;;;;14.58;59.13;94079.84;5067493;28;20429;-73
2022/04/24 00:13:15;;;;;;;7.03;5.37;;;;;;;14.62;59.34;94074.94;5086944;28;20170;-74
2022/04/24 00:15:41;;;;;;;7.57;5.60;;;;;;;14.69;59.48;94074.81;5080356;28;20756;-73
2022/04/24 00:18:06;;;;;;;9.93;6.00;;;;;;;14.69;58.86;94078.22;5071274;28;20177;-73
2022/04/24 00:20:32;;;;;;;6.73;6.07;;;;;;;14.59;59.78;94078.03;5065443;28;20275;-73
2022/04/24 00:23:00;;;;;;;8.93;6.23;;;;;;;14.53;59.65;94082.38;5080315;28;20231;-74
2022/04/24 00:25:26;;;;;;;7.07;5.23;;;;;;;14.59;59.64;94085.94;5087109;28;20287;-73
2022/04/24 00:27:51;;;;;;;6.50;5.37;;;;;;;14.56;59.59;94076.63;5071082;28;20425;-73
2022/04/24 00:30:17;;;;;;;11.17;6.40;;;;;;;14.66;58.83;94085.78;5075866;28;20177;-73
2022/04/24 00:32:42;;;;;;;9.07;6.50;;;;;;;14.55;58.99;94084.75;5085200;28;20166;-73
2022/04/24 00:35:08;;;;;;;7.50;5.93;;;;;;;14.77;58.67;94087.59;5078324;28;20240;-73
2022/04/24 00:37:33;;;;;;;6.83;6.20;;;;;;;14.58;59.06;94087.75;5073416;28;20174;-73
2022/04/24 00:39:59;;;;;;;9.57;6.80;;;;;;;14.47;59.90;94087.75;5075979;28;20174;-73
2022/04/24 00:42:24;;;;;;;6.60;6.07;;;;;;;14.51;59.09;94076.50;5068086;28;20194;-73
2022/04/24 00:44:50;;;;;;;5.73;5.13;;;;;;;14.44;58.56;94083.78;5076942;28;20204;-73
2022/04/24 00:47:21;;;;;;;6.70;5.30;;;;;;;14.50;59.47;94082.84;5082549;28;20170;-72
2022/04/24 00:49:50;;;;;;;8.60;6.10;;;;;;;14.43;59.22;94082.94;5071244;28;20193;-73
2022/04/24 00:52:17;;;;;;;5.87;5.30;;;;;;;14.58;59.25;94084.34;5080114;28;20409;-73
2022/04/24 00:54:43;;;;;;;5.73;4.63;;;;;;;14.36;59.37;94082.28;5076437;28;20493;-73
2022/04/24 00:57:09;;;;;;;5.73;5.20;;;;;;;14.40;59.38;94088.69;5077042;28;20477;-73
2022/04/24 00:59:37;;;;;;;5.13;4.63;;;;;;;14.37;59.27;94088.34;5067307;28;20193;-73
2022/04/24 01:02:04;;;;;;;5.67;5.03;;;;;;;14.45;58.97;94087.97;5078303;28;20423;-73
2022/04/24 01:04:29;;;;;;;7.27;5.43;;;;;;;14.41;59.49;94090.28;5066078;28;20464;-73
2022/04/24 01:06:55;;;;;;;5.10;4.70;;;;;;;14.32;59.63;94091.66;5078250;28;20547;-73
2022/04/24 01:09:24;;;;;;;9.90;5.27;;;;;;;14.36;59.28;94092.81;5063513;28;20194;-73
2022/04/24 01:11:55;;;;;;;5.70;4.33;;;;;;;14.37;58.60;94094.41;5076029;28;20223;-73
2022/04/24 01:14:25;;;;;;;8.63;4.90;;;;;;;14.28;59.38;94100.25;5071070;28;20490;-73
2022/04/24 01:16:51;;;;;;;5.67;4.63;;;;;;;14.33;59.57;94095.91;5070981;28;20408;-73
2022/04/24 01:19:17;;;;;;;7.37;5.03;;;;;;;14.33;59.55;94098.53;5087055;28;20423;-73
2022/04/24 01:21:44;;;;;;;7.30;5.17;;;;;;;14.38;59.66;94100.47;5087444;28;20408;-73
2022/04/24 01:24:11;;;;;;;5.37;4.73;;;;;;;14.36;58.82;94099.91;5087518;28;20495;-73
2022/04/24 01:26:36;;;;;;;5.27;4.23;;;;;;;14.33;59.36;94108.28;5072377;28;20437;-73
2022/04/24 01:29:04;;;;;;;12.03;4.27;;;;;;;14.22;59.76;94108.03;5078476;28;20432;-73
2022/04/24 01:31:30;;;;;;;7.50;4.73;;;;;;;14.12;59.83;94109.66;5081222;28;20170;-73
2022/04/24 01:33:56;;;;;;;4.90;4.50;;;;;;;14.11;59.89;94108.03;5078494;28;20433;-73
2022/04/24 01:36:21;;;;;;;5.50;4.30;;;;;;;14.14;60.25;94118.13;5069616;28;20420;-73
2022/04/24 01:38:47;;;;;;;5.13;4.63;;;;;;;14.02;60.72;94118.94;5084681;28;20169;-73
2022/04/24 01:41:12;;;;;;;6.20;4.30;;;;;;;14.05;60.05;94110.56;5081137;28;20177;-73
2022/04/24 01:43:39;;;;;;;6.80;4.77;;;;;;;14.16;59.98;94114.22;5078235;28;20189;-73
2022/04/24 01:46:05;;;;;;;7.47;4.67;;;;;;;13.97;60.08;94112.75;5079889;28;20203;-73
2022/04/24 01:48:33;;;;;;;6.40;4.43;;;;;;;13.88;60.23;94117.53;5079546;28;20408;-73
2022/04/24 01:51:00;;;;;;;7.83;4.30;;;;;;;14.00;60.48;94120.97;5082049;28;20406;-73
2022/04/24 01:53:25;;;;;;;8.57;4.87;;;;;;;14.37;58.29;94115.47;5078408;28;20409;-73
2022/04/24 01:55:51;;;;;;;5.73;4.43;;;;;;;14.33;58.38;94121.44;5075417;28;20482;-73
2022/04/24 01:58:16;;;;;;;9.80;5.30;;;;;;;14.09;59.80;94118.00;5082841;28;20261;-73
2022/04/24 02:00:42;;;;;;;11.17;7.90;;;;;;;13.95;60.55;94125.31;5068307;28;20209;-74
2022/04/24 02:03:08;;;;;;;6.87;5.00;;;;;;;13.80;61.06;94118.66;5079957;28;20182;-73
2022/04/24 02:05:33;;;;;;;9.73;4.67;;;;;;;13.96;60.05;94116.41;5072290;28;20202;-74
2022/04/24 02:07:58;;;;;;;5.00;4.40;;;;;;;14.00;59.79;94115.72;5081600;28;20178;-73
2022/04/24 02:10:24;;;;;;;6.07;5.17;;;;;;;13.71;59.91;94122.66;5078436;28;20265;-73
2022/04/24 02:12:49;;;;;;;8.80;6.17;;;;;;;13.65;61.07;94124.34;5080125;28;20173;-73
2022/04/24 02:15:17;;;;;;;8.03;5.37;;;;;;;13.76;61.14;94124.63;5071536;28;20284;-73
2022/04/24 02:17:42;;;;;;;5.80;5.20;;;;;;;13.69;60.83;94122.09;5086560;28;20247;-73
2022/04/24 02:20:09;;;;;;;8.73;4.70;;;;;;;13.81;60.62;94119.47;5084985;28;20428;-73
2022/04/24 02:22:36;;;;;;;8.13;5.80;;;;;;;13.89;60.43;94124.41;5082234;28;20162;-74
2022/04/24 02:25:03;;;;;;;8.37;5.80;;;;;;;13.62;61.24;94131.91;5083498;28;20483;-74
2022/04/24 02:27:29;;;;;;;5.40;4.90;;;;;;;13.57;61.56;94126.53;5086177;28;20411;-74
2022/04/24 02:29:54;;;;;;;6.80;5.40;;;;;;;13.51;61.76;94127.41;5067689;28;20424;-73
2022/04/24 02:32:20;;;;;;;6.70;4.80;;;;;;;13.55;61.63;94126.75;5067832;28;20177;-73
2022/04/24 02:34:45;;;;;;;5.57;4.30;;;;;;;13.67;60.78;94127.56;5083809;28;20178;-72
2022/04/24 02:37:11;;;;;;;10.60;5.23;;;;;;;13.56;62.47;94130.16;5099194;28;20182;-73
2022/04/24 02:39:36;;;;;;;5.97;5.43;;;;;;;13.55;62.00;94128.59;5080561;28;20188;-73
2022/04/24 02:42:03;;;;;;;12.43;5.20;;;;;;;13.61;61.61;94127.69;5081779;28;20180;-73
2022/04/24 02:44:28;;;;;;;6.10;4.77;;;;;;;13.56;62.46;94130.16;5079248;28;20197;-73
2022/04/24 02:46:54;;;;;;;5.77;5.20;;;;;;;13.52;61.89;94132.44;5082095;28;20422;-73
2022/04/24 02:49:19;;;;;;;7.67;4.80;;;;;;;13.36;61.68;94139.16;5071773;28;20629;-74
2022/04/24 02:51:44;;;;;;;9.80;4.93;;;;;;;13.30;62.34;94137.44;5074682;28;20238;-73
2022/04/24 02:54:10;;;;;;;6.97;5.60;;;;;;;13.51;61.22;94132.66;5077688;28;20232;-72
2022/04/24 02:56:35;;;;;;;7.33;5.03;;;;;;;13.43;61.94;94137.25;5085409;28;20191;-74
2022/04/24 02:59:02;;;;;;;5.10;4.60;;;;;;;13.39;61.56;94149.22;5074667;28;20269;-73
2022/04/24 03:01:30;;;;;;;10.00;4.67;;;;;;;13.29;62.13;94136.56;5080708;28;20173;-73
2022/04/24 03:03:56;;;;;;;5.80;5.00;;;;;;;13.19;62.16;94146.84;5069314;28;20491;-73
2022/04/24 03:06:22;;;;;;;7.03;4.73;;;;;;;13.22;62.36;94141.16;5070667;28;20427;-73
2022/04/24 03:08:47;;;;;;;5.27;4.70;;;;;;;13.17;61.78;94148.09;5068193;28;20440;-73
2022/04/24 03:11:14;;;;;;;8.70;5.10;;;;;;;13.17;62.22;94153.34;5069734;28;20181;-73
2022/04/24 03:13:40;;;;;;;7.43;5.13;;;;;;;13.15;62.12;94147.50;5072829;28;20232;-73
2022/04/24 03:16:06;;;;;;;6.53;5.93;;;;;;;13.16;62.16;94157.78;5078874;28;20409;-73
2022/04/24 03:18:31;;;;;;;8.03;5.50;;;;;;;13.21;61.59;94151.88;5083903;28;20423;-75
2022/04/24 03:20:57;;;;;;;6.83;6.23;;;;;;;13.24;62.08;94154.03;5068956;28;20170;-73
2022/04/24 03:23:22;;;;;;;7.90;6.70;;;;;;;13.27;61.90;94153.59;5074201;28;20197;-73
2022/04/24 03:25:50;;;;;;;9.10;5.80;;;;;;;13.79;59.41;94153.91;5084104;28;20251;-74
2022/04/24 03:28:16;;;;;;;6.77;5.20;;;;;;;13.60;59.68;94152.34;5074418;28;20171;-73
2022/04/24 03:30:41;;;;;;;7.60;5.60;;;;;;;13.32;61.48;94155.59;5071476;28;20479;-74
2022/04/24 03:33:07;;;;;;;7.50;6.70;;;;;;;13.11;62.08;94164.72;5078667;28;20190;-73
2022/04/24 03:35:32;;;;;;;6.20;5.10;;;;;;;13.05;61.82;94166.41;5064890;28;20186;-73
2022/04/24 03:37:58;;;;;;;8.10;6.90;;;;;;;12.98;62.27;94169.13;5071853;28;20174;-73
2022/04/24 03:40:23;;;;;;;9.00;6.40;;;;;;;13.18;62.33;94168.06;5065106;28;20186;-73
2022/04/24 03:42:49;;;;;;;9.60;7.10;;;;;;;13.32;61.97;94161.66;5066763;28;20182;-73
2022/04/24 03:45:14;;;;;;;7.47;6.67;;;;;;;13.63;61.18;94168.47;5066139;28;20206;-73
2022/04/24 03:47:40;;;;;;;9.40;6.60;;;;;;;13.09;62.73;94157.09;5084751;28;20580;-73
2022/04/24 03:50:06;;;;;;;8.47;7.03;;;;;;;13.26;62.33;94158.06;5079855;28;20205;-73
2022/04/24 03:52:32;;;;;;;6.47;5.50;;;;;;;13.07;62.48;94167.81;5081830;28;20174;-73
2022/04/24 03:54:58;;;;;;;12.17;6.50;;;;;;;13.28;62.03;94166.53;5072527;28;20517;-73
2022/04/24 03:57:24;;;;;;;4.87;4.43;;;;;;;13.18;61.62;94170.69;5084601;28;20166;-73
2022/04/24 03:59:49;;;;;;;6.00;4.97;;;;;;;12.92;63.24;94177.06;5076952;28;20182;-73
2022/04/24 04:02:15;;;;;;;7.27;5.50;;;;;;;13.25;63.14;94174.03;5069366;28;20170;-73
2022/04/24 04:04:41;;;;;;;6.67;6.10;;;;;;;13.62;61.12;94163.44;5077013;28;20474;-73
2022/04/24 04:07:07;;;;;;;5.77;5.07;;;;;;;13.50;61.90;94168.69;5081185;28;20412;-73
2022/04/24 04:09:32;;;;;;;5.40;4.83;;;;;;;13.54;61.69;94175.09;5065872;28;20181;-73
2022/04/24 04:11:58;;;;;;;5.77;5.27;;;;;;;13.85;60.56;94170.59;5072879;28;20548;-74
2022/04/24 04:14:23;;;;;;;8.40;5.27;;;;;;;13.89;60.68;94171.75;5074698;28;20231;-73
2022/04/24 04:16:50;;;;;;;7.17;6.27;;;;;;;14.05;59.99;94167.66;5074270;28;20176;-73
2022/04/24 04:19:16;;;;;;;6.57;5.17;;;;;;;14.28;58.83;94163.44;5076436;28;20188;-73
2022/04/24 04:21:43;;;;;;;5.73;5.17;;;;;;;14.09;60.01;94168.78;5069092;28;20479;-73
2022/04/24 04:24:08;;;;;;;9.77;5.90;;;;;;;14.25;59.95;94170.75;5082427;28;20459;-74
2022/04/24 04:26:34;;;;;;;7.97;5.47;;;;;;;14.39;59.46;94176.56;5071232;28;20406;-74
2022/04/24 04:29:00;;;;;;;7.20;5.40;;;;;;;14.55;58.80;94176.91;5069687;28;20471;-74
2022/04/24 04:31:25;;;;;;;8.83;5.03;;;;;;;14.67;57.82;94179.59;5065137;28;20178;-73
2022/04/24 04:33:51;;;;;;;9.10;6.03;;;;;;;14.43;58.51;94187.47;5079331;28;20186;-73
2022/04/24 04:36:16;;;;;;;14.70;7.23;;;;;;;14.26;59.38;94187.34;5096545;28;20198;-73
2022/04/24 04:38:42;;;;;;;8.77;6.43;;;;;;;14.14;59.87;94189.97;5073970;28;20176;-73
2022/04/24 04:41:08;;;;;;;9.77;7.10;;;;;;;14.49;58.71;94194.44;5074053;28;20194;-74
2022/04/24 04:43:34;;;;;;;9.20;7.60;;;;;;;14.67;59.22;94192.75;5082975;28;20181;-74
2022/04/24 04:45:59;;;;;;;9.80;7.10;;;;;;;14.55;59.26;94193.53;5067001;28;20186;-74
2022/04/24 04:48:25;;;;;;;8.60;7.47;;;;;;;14.32;59.74;94206.69;5072921;28;20421;-74
2022/04/24 04:50:51;;;;;;;8.37;7.57;;;;;;;13.98;60.97;94201.16;5093399;28;20218;-74
2022/04/24 04:53:16;;;;;;;8.20;7.40;;;;;;;13.79;61.98;94203.03;5109352;28;20416;-73
2022/04/24 04:55:42;;;;;;;8.17;7.37;;;;;;;13.74;62.07;94202.94;5074672;28;20732;-74
2022/04/24 04:58:08;;;;;;;9.57;8.00;;;;;;;13.56;62.03;94203.78;5080724;28;20231;-73
2022/04/24 05:00:33;;;;;;;9.00;7.93;;;;;;;13.76;61.69;94208.78;5075007;28;20222;-73
2022/04/24 05:02:58;;;;;;;10.17;8.60;;;;;;;14.15;60.02;94201.28;5073146;28;20182;-73
2022/04/24 05:05:24;;;;;;;9.07;8.27;;;;;;;14.03;60.72;94206.53;5072159;28;20207;-73
2022/04/24 05:07:51;;;;;;;15.03;9.47;;;;;;;13.93;61.89;94208.94;5080951;28;20179;-73
2022/04/24 05:10:17;;;;;;;11.40;8.03;;;;;;;14.57;59.53;94203.84;5087668;28;20178;-73
2022/04/24 05:12:43;;;;;;;10.53;9.13;;;;;;;14.82;59.26;94206.25;5087357;28;20470;-73
2022/04/24 05:15:12;;;;;;;9.40;8.50;;;;;;;15.15;58.35;94210.06;5077216;28;20432;-73
2022/04/24 05:17:39;;;;;;;18.50;8.80;;;;;;;15.42;57.74;94215.59;5077374;28;20178;-73
2022/04/24 05:20:06;;;;;;;10.80;9.70;;;;;;;15.45;57.00;94216.97;5080838;28;20425;-74
2022/04/24 05:22:32;;;;;;;9.83;8.77;;;;;;;15.90;56.27;94210.97;5079138;28;20484;-74
2022/04/24 05:24:57;;;;;;;13.10;9.50;;;;;;;16.16;55.09;94210.34;5070637;28;20496;-74
2022/04/24 05:27:23;;;;;;;10.53;9.13;;;;;;;15.67;55.28;94209.19;5080984;28;20242;-73
2022/04/24 05:29:48;;;;;;;15.70;9.50;;;;;;;15.97;55.18;94208.94;5072890;28;20252;-73
2022/04/24 05:32:15;;;;;;;14.60;9.73;;;;;;;16.12;55.10;94208.41;5081303;28;20685;-73
2022/04/24 05:34:40;;;;;;;10.40;8.67;;;;;;;16.13;54.68;94205.53;5075764;28;20174;-73
2022/04/24 05:37:06;;;;;;;11.27;8.33;;;;;;;15.63;56.67;94206.22;5077679;28;20456;-73
2022/04/24 05:39:32;;;;;;;10.50;9.40;;;;;;;15.88;56.28;94202.47;5109836;28;20200;-73
2022/04/24 05:41:58;;;;;;;10.53;9.43;;;;;;;16.28;55.79;94201.53;5070417;28;20425;-73
2022/04/24 05:44:24;;;;;;;10.63;9.73;;;;;;;16.30;55.56;94197.63;5071959;28;20469;-73
2022/04/24 05:46:50;;;;;;;11.67;10.00;;;;;;;16.50;54.54;94198.94;5070722;28;20198;-74
2022/04/24 05:49:15;;;;;;;10.73;9.63;;;;;;;16.53;54.22;94198.47;5071492;28;20182;-74
2022/04/24 05:51:42;;;;;;;15.00;9.73;;;;;;;16.46;54.13;94205.75;5080321;28;20422;-73
2022/04/24 05:54:28;;;;;;;9.97;8.97;;;;;;;16.84;53.46;94209.50;5074694;28;20222;-73
2022/04/24 05:56:54;;;;;;;10.07;9.10;;;;;;;16.63;53.52;94203.91;5076220;28;20460;-73
2022/04/24 05:59:19;;;;;;;13.00;10.73;;;;;;;16.75;53.87;94196.69;5070158;28;20835;-74
2022/04/24 06:01:44;;;;;;;12.70;10.30;;;;;;;17.46;52.49;94206.56;5069403;28;20181;-73
2022/04/24 06:04:10;;;;;;;14.87;10.40;;;;;;;17.41;52.38;94203.84;5079678;28;20198;-74
2022/04/24 06:06:35;;;;;;;18.43;11.50;;;;;;;18.15;51.45;94205.13;5081460;28;20198;-75
2022/04/24 06:09:01;;;;;;;11.83;10.63;;;;;;;18.49;50.15;94197.69;5066843;28;20183;-73
2022/04/24 06:11:26;;;;;;;14.83;10.17;;;;;;;18.08;50.28;94197.41;5092487;28;20240;-73
2022/04/24 06:13:52;;;;;;;10.73;9.20;;;;;;;18.47;49.68;94196.34;5080134;28;20208;-74
2022/04/24 06:16:18;;;;;;;11.70;8.53;;;;;;;18.66;47.73;94188.81;5073366;28;20190;-73
2022/04/24 06:18:43;;;;;;;10.50;9.40;;;;;;;18.94;48.06;94186.88;5068303;28;20496;-73
2022/04/24 06:21:09;;;;;;;13.37;10.57;;;;;;;17.90;50.38;94189.81;5066970;28;20391;-73
2022/04/24 06:23:34;;;;;;;9.27;8.47;;;;;;;18.58;49.11;94194.59;5076492;28;20257;-74
2022/04/24 06:26:00;;;;;;;10.43;8.97;;;;;;;19.18;47.69;94188.03;5075260;28;20234;-73
2022/04/24 06:28:25;;;;;;;13.00;8.13;;;;;;;19.54;46.63;94182.84;5064721;28;20180;-74
2022/04/24 06:30:51;;;;;;;7.83;7.20;;;;;;;19.50;46.14;94179.09;5074393;28;20193;-74
2022/04/24 06:33:17;;;;;;;7.37;6.67;;;;;;;19.53;45.74;94183.91;5077112;28;20181;-73
2022/04/24 06:35:45;;;;;;;8.30;5.97;;;;;;;19.73;44.95;94182.38;5073996;28;20193;-73
2022/04/24 06:38:10;;;;;;;6.93;5.50;;;;;;;19.82;44.74;94183.47;5082085;28;20557;-73
2022/04/24 06:40:36;;;;;;;5.37;4.87;;;;;;;19.75;44.34;94190.88;5073118;28;20432;-73
2022/04/24 06:43:04;;;;;;;5.03;4.40;;;;;;;20.28;43.30;94189.63;5081374;28;20205;-73
2022/04/24 06:45:38;;;;;;;8.27;4.80;;;;;;;19.92;43.81;94191.47;5063522;28;20210;-73
2022/04/24 06:48:06;;;;;;;5.10;4.60;;;;;;;20.01;43.90;94181.88;5079529;28;20416;-73
2022/04/24 06:50:32;;;;;;;7.13;4.40;;;;;;;19.75;44.25;94185.56;5083136;28;20686;-73
2022/04/24 06:53:18;;;;;;;7.53;4.10;;;;;;;19.93;43.99;94176.31;5086602;28;20423;-73
2022/04/24 06:55:44;;;;;;;7.67;6.20;;;;;;;20.48;42.71;94180.03;5052635;28;20496;-73
2022/04/24 06:58:12;;;;;;;8.30;4.93;;;;;;;20.40;43.22;94176.03;5071912;28;20513;-74
2022/04/24 07:00:40;;;;;;;3.77;3.30;;;;;;;20.79;42.53;94172.03;5079915;28;20431;-72
2022/04/24 07:03:18;;;;;;;4.30;3.60;;;;;;;21.12;40.86;94170.59;5074111;28;20510;-73
2022/04/24 07:05:44;;;;;;;5.60;3.73;;;;;;;19.99;43.29;94165.41;5065415;28;20468;-73
2022/04/24 07:08:10;;;;;;;6.70;3.60;;;;;;;20.34;42.87;94165.69;5065654;28;20419;-73
2022/04/24 07:10:35;;;;;;;9.53;4.30;;;;;;;20.56;42.58;94162.72;5066153;28;20444;-74
2022/04/24 07:13:01;;;;;;;5.20;3.00;;;;;;;20.78;42.04;94163.25;5077339;28;20260;-73
2022/04/24 07:15:36;;;;;;;6.70;3.33;;;;;;;20.50;42.80;94166.47;5068195;28;20735;-73
2022/04/24 07:18:02;;;;;;;7.10;3.70;;;;;;;20.75;42.16;94163.00;5067088;28;20194;-74
2022/04/24 07:20:29;;;;;;;3.30;3.00;;;;;;;21.28;41.30;94157.22;5077771;28;20427;-74
2022/04/24 07:23:01;;;;;;;3.37;2.83;;;;;;;21.15;40.45;94148.78;5067152;28;20194;-73
2022/04/24 07:25:28;;;;;;;6.10;3.70;;;;;;;20.80;41.89;94153.13;5079739;28;20475;-73
2022/04/24 07:27:54;;;;;;;3.30;3.00;;;;;;;21.35;41.22;94147.88;5076768;28;20431;-73
2022/04/24 07:30:21;;;;;;;3.63;2.87;;;;;;;22.02;39.69;94144.81;5062692;28;20458;-74
2022/04/24 07:32:51;;;;;;;4.07;3.77;;;;;;;21.79;40.13;94144.44;5075725;28;20189;-73
2022/04/24 07:35:22;;;;;;;3.70;3.17;;;;;;;21.72;40.05;94145.81;5046851;28;20428;-74
2022/04/24 07:37:48;;;;;;;4.70;3.10;;;;;;;21.64;39.18;94144.53;5074403;28;20834;-74
2022/04/24 07:40:15;;;;;;;3.07;2.77;;;;;;;22.05;38.50;94149.59;5072783;28;20436;-74
2022/04/24 07:42:58;;;;;;;3.23;3.00;;;;;;;21.60;39.69;94149.63;5070515;28;20418;-74
2022/04/24 07:45:37;;;;;;;6.30;3.13;;;;;;;21.33;40.55;94149.22;5065129;28;21252;-80
2022/04/24 07:48:10;;;;;;;6.50;3.20;;;;;;;21.52;39.96;94146.75;5068923;28;20438;-74
2022/04/24 07:50:38;;;;;;;4.77;3.20;;;;;;;22.17;39.19;94141.22;5064266;28;20455;-74
2022/04/24 07:53:04;;;;;;;5.97;4.10;;;;;;;22.38;38.14;94142.66;5069373;28;20461;-74
2022/04/24 07:55:30;;;;;;;4.23;3.27;;;;;;;22.15;38.89;94148.72;5054176;28;20500;-74
2022/04/24 07:57:59;;;;;;;4.03;3.60;;;;;;;22.60;38.31;94134.19;5077518;28;20478;-74
2022/04/24 08:00:28;;;;;;;4.73;3.40;;;;;;;22.57;38.25;94133.97;5060262;28;20550;-74
2022/04/24 08:02:57;;;;;;;3.90;3.30;;;;;;;23.02;36.52;94134.56;5075432;28;20875;-74
2022/04/24 08:05:26;;;;;;;5.50;4.30;;;;;;;23.14;36.24;94126.94;5083614;28;20464;-74
2022/04/24 08:07:54;;;;;;;6.30;3.60;;;;;;;22.63;37.04;94132.03;5077696;28;20428;-74
2022/04/24 08:10:21;;;;;;;6.37;3.53;;;;;;;22.73;37.77;94122.06;5056232;28;20449;-74
2022/04/24 08:12:48;;;;;;;3.60;3.30;;;;;;;22.92;37.49;94116.00;5062732;28;20536;-74
2022/04/24 08:15:13;;;;;;;3.70;3.43;;;;;;;23.38;36.05;94118.13;5069667;28;20428;-74
2022/04/24 08:17:39;;;;;;;4.00;2.90;;;;;;;23.59;35.92;94114.06;5074938;28;20425;-74
2022/04/24 08:20:06;;;;;;;3.93;2.90;;;;;;;23.42;36.37;94111.13;5082432;28;20189;-75
2022/04/24 08:22:44;;;;;;;8.27;3.40;;;;;;;24.06;35.16;94097.38;5087244;28;20262;-74
2022/04/24 08:25:11;;;;;;;2.93;2.70;;;;;;;24.04;34.10;94102.22;5070312;28;20460;-74
2022/04/24 08:27:37;;;;;;;3.53;3.20;;;;;;;23.63;35.32;94097.47;5077597;28;20423;-73
2022/04/24 08:30:05;;;;;;;6.47;3.13;;;;;;;23.72;35.31;94098.41;5084963;28;20976;-73
2022/04/24 08:32:31;;;;;;;3.47;2.53;;;;;;;24.35;34.48;94094.47;5078389;28;20401;-73
2022/04/24 08:34:57;;;;;;;5.43;4.03;;;;;;;24.54;33.70;94091.75;5071565;28;20459;-73
2022/04/24 08:37:26;;;;;;;3.13;2.80;;;;;;;25.00;32.93;94093.53;5085420;28;20412;-73
2022/04/24 08:39:53;;;;;;;4.87;2.57;;;;;;;24.84;33.22;94092.28;5066693;28;20186;-73
2022/04/24 08:42:21;;;;;;;5.13;3.60;;;;;;;23.86;35.60;94079.78;5084568;28;20450;-73
2022/04/24 08:44:51;;;;;;;4.40;3.10;;;;;;;24.10;34.84;94083.13;5086910;28;20463;-73
2022/04/24 08:47:18;;;;;;;3.80;2.80;;;;;;;25.21;32.96;94083.22;5083219;28;20408;-73
2022/04/24 08:49:44;;;;;;;2.77;2.57;;;;;;;24.47;34.17;94080.63;5089797;28;20436;-73
2022/04/24 08:52:11;;;;;;;7.63;3.63;;;;;;;24.87;33.08;94081.78;5090895;28;20469;-73
2022/04/24 08:54:38;;;;;;;4.00;2.87;;;;;;;25.06;33.05;94088.88;5079416;28;20514;-73
2022/04/24 08:57:04;;;;;;;5.10;3.13;;;;;;;25.51;32.10;94076.41;5081061;28;20423;-74
2022/04/24 08:59:30;;;;;;;9.03;3.03;;;;;;;25.52;32.10;94072.66;5079318;28;20430;-74
2022/04/24 09:01:58;;;;;;;4.50;3.37;;;;;;;25.93;31.82;94070.16;5078335;28;20690;-72
2022/04/24 09:04:26;;;;;;;3.73;3.43;;;;;;;25.58;32.25;94073.34;5092410;28;20268;-74
2022/04/24 09:06:58;;;;;;;6.43;3.93;;;;;;;25.85;32.17;94067.06;5087340;28;20438;-73
2022/04/24 09:09:23;;;;;;;4.63;3.60;;;;;;;26.11;31.88;94074.53;5086886;28;20427;-73
2022/04/24 09:11:52;;;;;;;3.50;3.03;;;;;;;25.97;30.75;94071.13;5091978;28;20454;-81
2022/04/24 09:14:19;;;;;;;4.83;3.10;;;;;;;26.04;31.58;94066.91;5064989;28;20191;-73
2022/04/24 09:16:47;;;;;;;4.70;3.43;;;;;;;26.28;31.29;94063.09;5069647;28;20412;-73
2022/04/24 09:19:20;;;;;;;3.90;3.60;;;;;;;26.06;31.10;94053.97;5087302;28;20440;-73
2022/04/24 09:21:54;;;;;;;6.10;3.10;;;;;;;26.99;30.21;94049.66;5078278;28;20496;-73
2022/04/24 09:24:19;;;;;;;3.63;2.17;;;;;;;26.64;29.24;94052.25;5065471;28;20492;-74
2022/04/24 09:26:56;;;;;;;2.30;2.10;;;;;;;26.43;29.85;94045.81;5087219;28;20415;-73
2022/04/24 09:29:22;;;;;;;3.30;2.17;;;;;;;27.02;29.19;94046.34;5077815;28;20617;-77
2022/04/24 09:31:49;;;;;;;2.43;2.23;;;;;;;25.93;30.76;94037.97;5080928;28;20419;-73
2022/04/24 09:34:19;;;;;;;2.50;2.00;;;;;;;26.18;30.67;94029.28;5072206;28;20427;-73
2022/04/24 09:36:46;;;;;;;3.40;2.60;;;;;;;26.63;29.87;94029.16;5080501;28;20413;-73
2022/04/24 09:39:12;;;;;;;2.03;1.87;;;;;;;27.14;29.46;94028.84;5072614;28;20431;-73
2022/04/24 09:41:39;;;;;;;2.20;2.00;;;;;;;27.22;28.82;94028.84;5075595;28;20495;-73
2022/04/24 09:44:13;;;;;;;2.47;1.47;;;;;;;27.18;28.29;94029.78;5069695;28;20203;-73
2022/04/24 09:46:38;;;;;;;3.60;1.80;;;;;;;27.32;28.61;94022.41;5082337;28;20421;-73
2022/04/24 09:49:08;;;;;;;3.00;1.87;;;;;;;27.85;27.98;94013.19;5084825;28;20464;-74
2022/04/24 09:51:39;;;;;;;3.23;1.77;;;;;;;27.39;28.96;94011.94;5072120;28;20165;-74
2022/04/24 09:54:06;;;;;;;3.23;2.10;;;;;;;27.10;29.14;94001.03;5075460;28;20481;-73
2022/04/24 09:56:33;;;;;;;4.90;2.03;;;;;;;26.92;29.08;94006.38;5067807;28;20465;-73
2022/04/24 09:58:58;;;;;;;3.57;1.93;;;;;;;27.62;27.50;93996.47;5077865;28;20428;-74
2022/04/24 10:01:26;;;;;;;2.33;2.13;;;;;;;27.75;27.69;93996.59;5058716;28;20453;-74
2022/04/24 10:03:53;;;;;;;4.17;2.20;;;;;;;27.87;27.98;93993.25;5069929;28;21044;-74
2022/04/24 10:06:22;;;;;;;1.70;1.60;;;;;;;27.97;27.36;93990.28;5081300;28;20455;-73
2022/04/24 10:08:49;;;;;;;2.50;1.70;;;;;;;28.22;27.81;93981.31;5077922;28;20441;-74
2022/04/24 10:11:15;;;;;;;2.63;2.00;;;;;;;28.95;26.31;93983.06;5092137;28;20418;-73
2022/04/24 10:13:45;;;;;;;4.43;2.57;;;;;;;28.48;27.06;93982.34;5085892;28;20413;-73
2022/04/24 10:16:55;;;;;;;3.53;2.60;;;;;;;29.05;26.41;93970.31;5086656;28;20418;-73
2022/04/24 10:19:46;;;;;;;5.43;2.20;;;;;;;28.65;26.84;93976.91;5079136;28;20426;-73
2022/04/24 10:22:35;;;;;;;2.73;1.80;;;;;;;27.96;27.88;93964.47;5087713;28;20411;-74
2022/04/24 10:25:02;;;;;;;2.80;1.80;;;;;;;28.88;27.21;93973.91;5085862;28;20475;-74
2022/04/24 10:27:45;;;;;;;4.00;2.37;;;;;;;29.08;26.90;93958.88;5086054;28;20422;-73
2022/04/24 10:30:22;;;;;;;2.30;1.80;;;;;;;29.44;26.10;93968.28;5076212;28;20437;-73
2022/04/24 10:32:48;;;;;;;2.83;1.90;;;;;;;29.66;25.48;93962.53;5073643;28;20756;-74
2022/04/24 10:35:17;;;;;;;3.20;2.43;;;;;;;29.31;26.08;93968.25;5066615;28;20435;-73
2022/04/24 10:37:44;;;;;;;7.50;2.67;;;;;;;28.23;26.95;93958.69;5079910;28;20420;-74
2022/04/24 10:40:19;;;;;;;3.17;2.33;;;;;;;28.95;26.47;93960.69;5066534;28;20428;-74
2022/04/24 10:42:45;;;;;;;5.30;2.27;;;;;;;28.85;26.69;93961.09;5060914;28;20426;-74
2022/04/24 10:45:20;;;;;;;3.13;1.77;;;;;;;29.19;26.07;93960.84;5065484;28;20472;-74
2022/04/24 10:47:55;;;;;;;2.40;2.20;;;;;;;28.15;26.46;93956.00;5085562;28;20191;-75
2022/04/24 10:50:22;;;;;;;3.40;1.70;;;;;;;28.43;26.45;93953.69;5070796;28;20441;-74
2022/04/24 10:52:53;;;;;;;4.83;1.80;;;;;;;28.93;26.33;93946.75;5077097;28;20490;-74
2022/04/24 10:55:24;;;;;;;4.20;1.80;;;;;;;29.29;25.78;93948.91;5047915;28;20477;-74
2022/04/24 10:57:57;;;;;;;7.63;2.33;;;;;;;30.09;25.38;93937.03;5053249;28;20451;-73
2022/04/24 11:00:28;;;;;;;2.97;1.73;;;;;;;29.07;26.93;93949.22;5080074;28;20436;-74
2022/04/24 11:03:05;;;;;;;4.30;2.03;;;;;;;29.78;26.12;93945.63;5084695;28;20520;-74
2022/04/24 11:05:36;;;;;;;3.10;2.00;;;;;;;28.85;26.74;93945.69;5071415;28;20475;-74
2022/04/24 11:08:03;;;;;;;3.63;1.80;;;;;;;29.63;25.88;93941.59;5082829;28;20423;-74
2022/04/24 11:10:29;;;;;;;2.17;1.73;;;;;;;30.03;25.00;93934.88;5070899;28;20437;-74
2022/04/24 11:12:55;;;;;;;4.83;1.97;;;;;;;29.92;24.87;93932.63;5077778;28;20426;-74
2022/04/24 11:15:21;;;;;;;2.90;1.73;;;;;;;30.30;24.59;93925.34;5094293;28;20174;-74
2022/04/24 11:17:47;;;;;;;2.50;1.60;;;;;;;28.88;26.15;93922.72;5086333;28;20487;-76
2022/04/24 11:20:15;;;;;;;2.50;1.80;;;;;;;28.96;25.97;93919.94;5077112;28;20248;-74
2022/04/24 11:22:45;;;;;;;4.93;2.00;;;;;;;28.68;26.50;93908.91;5071797;28;20184;-75
2022/04/24 11:25:14;;;;;;;6.00;2.30;;;;;;;29.23;25.72;93906.31;5074667;28;20471;-73
2022/04/24 11:27:41;;;;;;;5.03;2.20;;;;;;;29.34;24.99;93910.16;5094764;28;20429;-74
2022/04/24 11:30:31;;;;;;;3.87;2.33;;;;;;;29.43;25.32;93902.00;5077188;28;20430;-74
2022/04/24 11:33:05;;;;;;;3.87;1.77;;;;;;;28.72;26.18;93909.03;5073935;28;20399;-74